Time;durP1;ratioP1;P1;durP2;ratioP2;P2;SDS_P1;SDS_P2;PMS_P1;PMS_P2;Temp;Humidity;BMP_temperature;BMP_pressure;BME280_temperature;BME280_humidity;BME280_pressure;Samples;Min_cycle;Max_cycle;Signal;HPM_P1;HPM_P2
2021/01/19 00:01:49;;;;;;;8.65;3.80;;;6.20;63.70;;;;;;5032860;28;20589;-71
2021/01/19 00:04:15;;;;;;;6.43;3.80;;;6.10;63.60;;;;;;5032781;28;20101;-71
2021/01/19 00:06:42;;;;;;;5.72;3.55;;;6.10;63.80;;;;;;5032886;28;20053;-71
2021/01/19 00:09:09;;;;;;;5.10;2.85;;;6.10;63.80;;;;;;5032818;28;20047;-70
2021/01/19 00:11:35;;;;;;;6.85;3.55;;;6.10;64.70;;;;;;5032582;28;20038;-72
2021/01/19 00:14:00;;;;;;;5.38;3.80;;;6.10;64.00;;;;;;5032699;28;20033;-71
2021/01/19 00:16:26;;;;;;;8.48;3.80;;;6.00;64.00;;;;;;5032644;28;20104;-72
2021/01/19 00:18:52;;;;;;;7.68;3.85;;;6.10;64.10;;;;;;5032931;28;20045;-72
2021/01/19 00:21:18;;;;;;;5.32;3.67;;;6.00;64.00;;;;;;5039415;28;20416;-72
2021/01/19 00:23:44;;;;;;;6.70;3.75;;;6.00;64.10;;;;;;5037291;28;20029;-71
2021/01/19 00:26:09;;;;;;;6.70;3.80;;;6.00;64.90;;;;;;5036612;28;20032;-71
2021/01/19 00:28:35;;;;;;;5.00;3.75;;;6.00;64.10;;;;;;5037942;28;20497;-72
2021/01/19 00:31:01;;;;;;;5.50;3.78;;;6.00;64.10;;;;;;5038947;28;20029;-71
2021/01/19 00:33:27;;;;;;;5.40;3.58;;;6.00;64.20;;;;;;5038589;28;20017;-72
2021/01/19 00:35:54;;;;;;;5.63;3.30;;;6.10;64.10;;;;;;5019654;28;20029;-72
2021/01/19 00:38:19;;;;;;;6.72;3.67;;;6.10;64.00;;;;;;5033479;28;20398;-71
2021/01/19 00:40:45;;;;;;;4.35;3.08;;;6.10;64.00;;;;;;5037234;28;20021;-73
2021/01/19 00:43:11;;;;;;;5.07;3.63;;;6.10;64.00;;;;;;5018752;28;20025;-72
2021/01/19 00:45:37;;;;;;;5.88;3.75;;;6.10;64.00;;;;;;5034888;28;20430;-72
2021/01/19 00:48:03;;;;;;;4.97;3.20;;;6.10;63.90;;;;;;5033677;28;20017;-72
2021/01/19 00:50:29;;;;;;;10.75;3.72;;;6.20;64.00;;;;;;5033726;28;20109;-72
2021/01/19 00:52:54;;;;;;;7.20;3.95;;;6.20;64.00;;;;;;5032649;28;20487;-70
2021/01/19 00:55:20;;;;;;;7.22;3.42;;;6.20;63.90;;;;;;5033417;28;20032;-71
2021/01/19 00:57:46;;;;;;;6.68;3.53;;;6.20;63.60;;;;;;5018845;28;20025;-70
2021/01/19 01:00:14;;;;;;;4.70;3.60;;;6.20;63.40;;;;;;5033598;28;20056;-71
2021/01/19 01:02:40;;;;;;;3.95;2.95;;;6.20;63.40;;;;;;5033460;28;20025;-71
2021/01/19 01:05:07;;;;;;;4.75;3.03;;;6.20;63.30;;;;;;5032757;28;20032;-71
2021/01/19 01:07:43;;;;;;;6.25;2.85;;;6.20;63.30;;;;;;5047428;28;20028;-73
2021/01/19 01:10:12;;;;;;;4.95;3.60;;;6.20;63.50;;;;;;5016758;28;20399;-72
2021/01/19 01:12:40;;;;;;;5.78;3.20;;;6.30;63.40;;;;;;5032461;28;20026;-72
2021/01/19 01:15:07;;;;;;;5.95;3.40;;;6.30;63.20;;;;;;5032770;28;20104;-72
2021/01/19 01:17:37;;;;;;;6.03;3.45;;;6.30;63.10;;;;;;5032890;28;20025;-71
2021/01/19 01:20:07;;;;;;;4.80;3.15;;;6.30;63.10;;;;;;5043180;28;20080;-72
2021/01/19 01:22:47;;;;;;;6.00;3.15;;;6.30;63.10;;;;;;5033258;28;20052;-72
2021/01/19 01:25:13;;;;;;;5.55;2.60;;;6.30;63.00;;;;;;5033871;28;20022;-73
2021/01/19 01:27:40;;;;;;;3.88;2.42;;;6.30;62.90;;;;;;5030485;28;20112;-71
2021/01/19 01:30:07;;;;;;;5.10;2.88;;;6.30;63.00;;;;;;5033249;28;20032;-70
2021/01/19 01:32:33;;;;;;;5.25;2.85;;;6.30;62.90;;;;;;5035162;28;20095;-71
2021/01/19 01:34:59;;;;;;;3.67;2.53;;;6.30;62.90;;;;;;5037460;28;20084;-71
2021/01/19 01:37:25;;;;;;;4.28;2.53;;;6.40;62.90;;;;;;5037241;28;20426;-72
2021/01/19 01:39:50;;;;;;;5.07;2.33;;;6.40;62.90;;;;;;5039822;28;20031;-71
2021/01/19 01:42:21;;;;;;;4.78;2.72;;;6.40;62.80;;;;;;5037099;28;20026;-71
2021/01/19 01:44:49;;;;;;;4.85;2.38;;;6.40;62.80;;;;;;5037421;28;20029;-72
2021/01/19 01:47:27;;;;;;;4.18;2.50;;;6.40;62.80;;;;;;5037006;28;20022;-71
2021/01/19 01:49:54;;;;;;;4.03;2.17;;;6.40;62.70;;;;;;5037382;28;20063;-72
2021/01/19 01:52:22;;;;;;;2.40;1.90;;;6.40;62.70;;;;;;5037260;28;20026;-70
2021/01/19 01:54:50;;;;;;;3.17;2.22;;;6.50;62.70;;;;;;5056344;28;20497;-71
2021/01/19 01:57:19;;;;;;;3.10;1.90;;;6.50;62.70;;;;;;5057082;28;20083;-70
2021/01/19 01:59:49;;;;;;;4.43;2.20;;;6.50;62.70;;;;;;5056753;28;20025;-72
2021/01/19 02:02:16;;;;;;;4.00;2.60;;;6.50;62.70;;;;;;5056663;28;20036;-72
2021/01/19 02:04:41;;;;;;;3.75;2.30;;;6.50;62.60;;;;;;5056387;28;20029;-71
2021/01/19 02:07:31;;;;;;;5.55;2.38;;;6.50;62.60;;;;;;5037305;28;20030;-71
2021/01/19 02:10:14;;;;;;;6.00;2.42;;;6.50;62.70;;;;;;5036348;28;20025;-71
2021/01/19 02:13:15;;;;;;;3.00;2.10;;;6.50;62.50;;;;;;5050534;28;20040;-71
2021/01/19 02:15:50;;;;;;;3.88;2.50;;;6.50;62.40;;;;;;5043708;28;20052;-72
2021/01/19 02:18:53;;;;;;;3.22;1.92;;;6.50;62.20;;;;;;5054740;28;20044;-71
2021/01/19 02:21:27;;;;;;;4.78;2.15;;;6.40;62.10;;;;;;5021374;28;20550;-71
2021/01/19 02:24:19;;;;;;;3.80;2.40;;;6.40;62.10;;;;;;5035099;28;20025;-71
2021/01/19 02:27:09;;;;;;;3.17;2.30;;;6.30;62.10;;;;;;5036347;28;20050;-70
2021/01/19 02:29:40;;;;;;;4.25;2.05;;;6.30;62.10;;;;;;5035065;28;20075;-71
2021/01/19 02:32:17;;;;;;;4.20;2.55;;;6.20;62.00;;;;;;5035898;28;20036;-71
2021/01/19 02:34:50;;;;;;;5.07;2.95;;;6.20;62.00;;;;;;5036237;28;20069;-71
2021/01/19 02:37:29;;;;;;;2.90;2.00;;;6.10;62.00;;;;;;5036034;28;20033;-70
2021/01/19 02:40:02;;;;;;;7.15;2.80;;;6.10;61.90;;;;;;5032881;28;20029;-71
2021/01/19 02:42:34;;;;;;;3.75;2.40;;;6.00;61.90;;;;;;5035867;28;20029;-71
2021/01/19 02:45:05;;;;;;;6.05;3.05;;;6.00;61.90;;;;;;5036266;28;20025;-72
2021/01/19 02:47:31;;;;;;;7.47;2.70;;;5.90;61.80;;;;;;5033957;28;20064;-71
2021/01/19 02:49:57;;;;;;;6.22;2.88;;;5.90;61.90;;;;;;5034506;28;20491;-71
2021/01/19 02:52:24;;;;;;;5.32;3.22;;;5.80;61.90;;;;;;5035860;28;20018;-71
2021/01/19 02:54:51;;;;;;;4.90;2.97;;;5.70;62.00;;;;;;5035810;28;20030;-70
2021/01/19 02:57:51;;;;;;;6.28;3.00;;;5.70;62.00;;;;;;5035715;28;20022;-72
2021/01/19 03:00:50;;;;;;;9.93;3.53;;;5.60;62.10;;;;;;5034488;28;20083;-71
2021/01/19 03:03:16;;;;;;;4.32;2.85;;;5.50;62.30;;;;;;5036252;28;20028;-71
2021/01/19 03:05:43;;;;;;;7.43;3.80;;;5.50;62.30;;;;;;5035173;28;20423;-72
2021/01/19 03:08:11;;;;;;;5.50;3.35;;;5.50;62.70;;;;;;5034427;28;20022;-71
2021/01/19 03:10:40;;;;;;;5.28;3.20;;;5.40;62.80;;;;;;5034774;28;20028;-70
2021/01/19 03:13:14;;;;;;;6.18;3.10;;;5.40;63.00;;;;;;5034326;28;20021;-71
2021/01/19 03:15:40;;;;;;;4.32;2.85;;;5.40;63.00;;;;;;5035167;28;20025;-70
2021/01/19 03:18:07;;;;;;;5.65;2.92;;;5.40;63.00;;;;;;5034759;28;20056;-70
2021/01/19 03:20:34;;;;;;;5.00;3.17;;;5.40;63.00;;;;;;5035226;28;20057;-70
2021/01/19 03:23:00;;;;;;;4.65;2.92;;;5.40;62.90;;;;;;5034080;28;20026;-71
2021/01/19 03:25:26;;;;;;;4.90;3.22;;;5.40;62.90;;;;;;5035614;28;20068;-71
2021/01/19 03:27:52;;;;;;;4.63;2.63;;;5.30;62.90;;;;;;5045611;28;20021;-71
2021/01/19 03:30:18;;;;;;;5.03;2.90;;;5.30;62.90;;;;;;5044527;28;20545;-71
2021/01/19 03:32:44;;;;;;;7.35;2.95;;;5.30;62.90;;;;;;5035096;28;20502;-71
2021/01/19 03:35:10;;;;;;;3.67;2.20;;;5.20;62.90;;;;;;5017321;28;20029;-71
2021/01/19 03:37:36;;;;;;;4.00;2.95;;;5.20;63.00;;;;;;5034923;28;20112;-70
2021/01/19 03:40:05;;;;;;;5.15;2.60;;;5.20;63.20;;;;;;5034986;28;20060;-70
2021/01/19 03:42:31;;;;;;;3.80;2.25;;;5.20;63.20;;;;;;5034848;28;20108;-70
2021/01/19 03:44:57;;;;;;;4.70;3.00;;;5.20;63.30;;;;;;5035398;28;20518;-72
2021/01/19 03:47:23;;;;;;;6.43;3.20;;;5.20;63.40;;;;;;5031792;28;20029;-71
2021/01/19 03:49:48;;;;;;;4.93;2.47;;;5.20;63.60;;;;;;5035317;28;20021;-71
2021/01/19 03:52:14;;;;;;;2.92;1.90;;;5.20;63.90;;;;;;5034335;28;20029;-71
2021/01/19 03:54:40;;;;;;;6.82;2.85;;;5.20;64.00;;;;;;5033136;28;20041;-72
2021/01/19 03:57:05;;;;;;;7.57;2.70;;;5.30;64.20;;;;;;5014859;28;20022;-71
2021/01/19 03:59:31;;;;;;;3.53;2.50;;;5.30;64.20;;;;;;5015417;28;20065;-71
2021/01/19 04:01:57;;;;;;;3.92;2.47;;;5.40;64.20;;;;;;5014772;28;20026;-70
2021/01/19 04:04:22;;;;;;;2.97;2.35;;;5.40;64.20;;;;;;5015296;28;20473;-71
2021/01/19 04:06:48;;;;;;;5.18;3.55;;;5.50;64.10;;;;;;5013486;28;20033;-70
2021/01/19 04:09:14;;;;;;;6.10;3.00;;;5.50;64.10;;;;;;5015209;28;20022;-70
2021/01/19 04:11:40;;;;;;;3.13;1.92;;;5.50;64.00;;;;;;5024793;28;20053;-71
2021/01/19 04:14:05;;;;;;;4.72;2.17;;;5.60;64.00;;;;;;5034159;28;20374;-71
2021/01/19 04:16:31;;;;;;;5.18;2.13;;;5.60;64.10;;;;;;5034182;28;20076;-71
2021/01/19 04:18:57;;;;;;;2.78;2.00;;;5.70;64.10;;;;;;5034016;28;20045;-70
2021/01/19 04:21:25;;;;;;;3.55;2.30;;;5.70;64.00;;;;;;5032856;28;20032;-71
2021/01/19 04:23:50;;;;;;;3.90;2.15;;;5.80;64.80;;;;;;5032853;28;20026;-71
2021/01/19 04:26:16;;;;;;;4.85;2.60;;;5.80;63.80;;;;;;5034132;28;20025;-71
2021/01/19 04:28:41;;;;;;;3.22;2.35;;;5.80;63.90;;;;;;5032476;28;20018;-70
2021/01/19 04:31:07;;;;;;;4.03;2.45;;;5.80;63.70;;;;;;5014295;28;20383;-71
2021/01/19 04:33:33;;;;;;;7.60;2.17;;;5.80;63.60;;;;;;5014462;28;20026;-71
2021/01/19 04:35:59;;;;;;;5.60;3.03;;;5.80;63.30;;;;;;5020306;28;20029;-71
2021/01/19 04:38:24;;;;;;;3.72;2.47;;;5.90;63.10;;;;;;5033416;28;20466;-71
2021/01/19 04:40:50;;;;;;;4.78;2.22;;;5.80;62.70;;;;;;5033794;28;20125;-71
2021/01/19 04:43:17;;;;;;;3.17;1.80;;;5.80;62.60;;;;;;5033722;28;20033;-71
2021/01/19 04:45:43;;;;;;;5.10;2.30;;;5.80;62.60;;;;;;5033764;28;20100;-71
2021/01/19 04:48:09;;;;;;;4.07;2.22;;;5.80;62.70;;;;;;5034216;28;20017;-70
2021/01/19 04:50:36;;;;;;;2.70;1.92;;;5.80;62.70;;;;;;5033901;28;20453;-71
2021/01/19 04:53:03;;;;;;;9.02;2.72;;;5.70;62.70;;;;;;5033718;28;20042;-71
2021/01/19 04:55:35;;;;;;;5.38;2.25;;;5.70;62.80;;;;;;5033399;28;20532;-71
2021/01/19 04:58:03;;;;;;;3.25;2.13;;;5.70;62.90;;;;;;5034075;28;20374;-72
2021/01/19 05:00:30;;;;;;;7.93;3.22;;;5.70;62.90;;;;;;5033597;28;20427;-72
2021/01/19 05:03:12;;;;;;;3.90;2.70;;;5.70;63.00;;;;;;5033468;28;20026;-71
2021/01/19 05:05:37;;;;;;;10.48;2.80;;;5.70;63.10;;;;;;5032115;28;20021;-72
2021/01/19 05:08:15;;;;;;;5.25;2.80;;;5.70;63.00;;;;;;5033399;28;20034;-72
2021/01/19 05:10:47;;;;;;;3.42;1.85;;;5.70;62.90;;;;;;5013836;28;20030;-72
2021/01/19 05:13:14;;;;;;;6.03;2.72;;;5.70;62.80;;;;;;5033032;28;20026;-71
2021/01/19 05:15:45;;;;;;;6.07;3.00;;;5.60;62.70;;;;;;5031833;28;20112;-72
2021/01/19 05:18:15;;;;;;;7.00;3.00;;;5.60;62.80;;;;;;5032323;28;20494;-72
2021/01/19 05:20:49;;;;;;;3.80;2.20;;;5.60;62.80;;;;;;5047998;28;20129;-71
2021/01/19 05:23:22;;;;;;;5.88;2.40;;;5.60;63.00;;;;;;5033250;28;20487;-71
2021/01/19 05:25:59;;;;;;;7.70;3.92;;;5.60;63.00;;;;;;5031772;28;20041;-71
2021/01/19 05:28:34;;;;;;;16.23;6.22;;;5.60;62.90;;;;;;5028506;28;20483;-72
2021/01/19 05:31:17;;;;;;;17.00;7.80;;;5.60;62.90;;;;;;5033454;28;20022;-71
2021/01/19 05:34:20;;;;;;;10.20;4.18;;;5.60;62.80;;;;;;5032865;28;20029;-71
2021/01/19 05:36:48;;;;;;;4.90;2.38;;;5.60;62.80;;;;;;5013722;28;20034;-71
2021/01/19 05:39:20;;;;;;;4.15;2.05;;;5.60;62.80;;;;;;5013455;28;20096;-72
2021/01/19 05:41:45;;;;;;;5.63;2.10;;;5.60;62.70;;;;;;5018761;28;20041;-71
2021/01/19 05:44:15;;;;;;;8.48;2.90;;;5.60;62.70;;;;;;5052691;28;20386;-72
2021/01/19 05:46:50;;;;;;;7.55;3.25;;;5.60;62.60;;;;;;5034208;28;20122;-72
2021/01/19 05:49:22;;;;;;;7.82;3.08;;;5.50;62.30;;;;;;5033363;28;20022;-71
2021/01/19 05:51:49;;;;;;;11.73;4.55;;;5.50;62.20;;;;;;5033439;28;20505;-71
2021/01/19 05:54:23;;;;;;;4.95;3.03;;;5.50;61.90;;;;;;5033008;28;20493;-71
2021/01/19 05:56:50;;;;;;;6.88;2.40;;;5.40;61.80;;;;;;5033039;28;20029;-70
2021/01/19 05:59:45;;;;;;;10.70;4.15;;;5.40;61.90;;;;;;5032994;28;20068;-70
2021/01/19 06:02:16;;;;;;;8.73;3.85;;;5.40;62.10;;;;;;5012876;28;20060;-72
2021/01/19 06:04:42;;;;;;;11.57;4.13;;;5.30;62.10;;;;;;5033484;28;20028;-71
2021/01/19 06:07:09;;;;;;;8.52;4.13;;;5.30;62.30;;;;;;5033607;28;20391;-70
2021/01/19 06:09:36;;;;;;;10.20;4.13;;;5.30;62.50;;;;;;5032922;28;20033;-71
2021/01/19 06:12:02;;;;;;;9.05;3.65;;;5.30;62.60;;;;;;5032869;28;20025;-71
2021/01/19 06:14:29;;;;;;;11.18;4.30;;;5.30;62.70;;;;;;5028407;28;20108;-70
2021/01/19 06:17:04;;;;;;;8.27;4.15;;;5.30;62.60;;;;;;5032742;28;20056;-71
2021/01/19 06:19:31;;;;;;;10.38;3.10;;;5.30;62.60;;;;;;5035578;28;20045;-71
2021/01/19 06:21:58;;;;;;;15.57;4.80;;;5.30;62.50;;;;;;5018321;28;20399;-71
2021/01/19 06:24:34;;;;;;;9.45;5.13;;;5.30;62.50;;;;;;5036016;28;20028;-72
2021/01/19 06:27:00;;;;;;;12.30;5.80;;;5.30;62.50;;;;;;5036266;28;20045;-71
2021/01/19 06:29:28;;;;;;;11.05;4.82;;;5.30;62.60;;;;;;5036801;28;20059;-71
2021/01/19 06:31:56;;;;;;;10.48;4.03;;;5.30;62.70;;;;;;5036711;28;20025;-71
2021/01/19 06:34:27;;;;;;;5.43;3.15;;;5.30;62.70;;;;;;5035878;28;20040;-71
2021/01/19 06:36:53;;;;;;;5.78;3.38;;;5.30;62.60;;;;;;5036710;28;20079;-70
2021/01/19 06:39:32;;;;;;;6.07;3.28;;;5.30;63.30;;;;;;5036040;28;20108;-72
2021/01/19 06:42:08;;;;;;;7.20;2.75;;;5.30;62.30;;;;;;5036213;28;20022;-71
2021/01/19 06:44:43;;;;;;;4.85;2.65;;;5.30;62.30;;;;;;5036232;28;20382;-71
2021/01/19 06:47:09;;;;;;;8.18;3.95;;;5.30;62.20;;;;;;5035506;28;20017;-71
2021/01/19 06:49:37;;;;;;;9.13;4.57;;;5.30;62.10;;;;;;5017889;28;20029;-71
2021/01/19 06:52:09;;;;;;;5.20;2.90;;;5.30;62.10;;;;;;5035571;28;20029;-72
2021/01/19 06:55:06;;;;;;;4.72;2.92;;;5.20;62.20;;;;;;5039304;28;20021;-71
2021/01/19 06:57:33;;;;;;;3.10;2.13;;;5.20;62.10;;;;;;5035946;28;20490;-72
2021/01/19 07:00:05;;;;;;;8.52;2.65;;;5.20;62.10;;;;;;5052019;28;20494;-71
2021/01/19 07:02:35;;;;;;;13.18;2.75;;;5.20;62.10;;;;;;5033883;28;20506;-71
2021/01/19 07:05:11;;;;;;;7.45;3.28;;;5.10;62.80;;;;;;5035294;28;20129;-72
2021/01/19 07:07:48;;;;;;;4.95;2.78;;;5.10;62.00;;;;;;5016047;28;20022;-71
2021/01/19 07:10:44;;;;;;;5.72;2.47;;;5.10;62.10;;;;;;5019339;28;20025;-71
2021/01/19 07:13:25;;;;;;;9.48;3.92;;;5.10;62.20;;;;;;5030069;28;20030;-71
2021/01/19 07:16:06;;;;;;;6.13;3.42;;;5.10;62.30;;;;;;5033758;28;20030;-71
2021/01/19 07:18:45;;;;;;;6.80;3.38;;;5.10;62.50;;;;;;5034739;28;20663;-71
2021/01/19 07:21:13;;;;;;;5.63;3.08;;;5.10;62.50;;;;;;5054661;28;20036;-71
2021/01/19 07:23:47;;;;;;;6.13;3.33;;;5.10;62.60;;;;;;5054995;28;20029;-71
2021/01/19 07:26:16;;;;;;;7.00;3.20;;;5.10;62.60;;;;;;5055153;28;20529;-72
2021/01/19 07:28:42;;;;;;;4.25;2.72;;;5.20;63.40;;;;;;5054781;28;20024;-71
2021/01/19 07:31:10;;;;;;;5.95;3.28;;;5.20;62.60;;;;;;5054206;28;20017;-71
2021/01/19 07:33:39;;;;;;;5.85;3.22;;;5.20;62.60;;;;;;5041687;28;20033;-72
2021/01/19 07:36:05;;;;;;;3.40;2.53;;;5.20;62.60;;;;;;5044161;28;20121;-71
2021/01/19 07:38:31;;;;;;;8.18;3.60;;;5.20;62.60;;;;;;5035001;28;20037;-71
2021/01/19 07:40:58;;;;;;;7.78;3.58;;;5.30;62.80;;;;;;5035006;28;20024;-71
2021/01/19 07:43:25;;;;;;;8.55;3.60;;;5.30;62.70;;;;;;5034925;28;20025;-71
2021/01/19 07:45:55;;;;;;;7.55;3.40;;;5.40;62.80;;;;;;5034902;28;20018;-70
2021/01/19 07:48:32;;;;;;;8.43;3.58;;;5.40;62.70;;;;;;5035685;28;20513;-71
2021/01/19 07:51:19;;;;;;;16.48;3.97;;;5.40;62.60;;;;;;5035025;28;20060;-72
2021/01/19 07:53:49;;;;;;;10.93;3.95;;;5.50;62.60;;;;;;5032727;28;20041;-71
2021/01/19 07:56:30;;;;;;;18.95;8.23;;;5.60;62.60;;;;;;5034472;28;20083;-71
2021/01/19 07:58:57;;;;;;;15.32;6.28;;;5.60;62.30;;;;;;5034605;28;20041;-71
2021/01/19 08:01:36;;;;;;;9.02;5.03;;;5.60;62.20;;;;;;5038053;28;20479;-71
2021/01/19 08:04:14;;;;;;;8.02;4.50;;;5.70;62.30;;;;;;5034210;28;20108;-71
2021/01/19 08:06:44;;;;;;;9.52;5.03;;;5.70;62.30;;;;;;5034088;28;20022;-71
2021/01/19 08:09:16;;;;;;;7.70;4.32;;;5.80;62.30;;;;;;5043639;28;20021;-72
2021/01/19 08:11:44;;;;;;;6.90;3.78;;;5.80;62.30;;;;;;5039787;28;20021;-71
2021/01/19 08:14:10;;;;;;;6.93;4.07;;;5.90;62.20;;;;;;5027476;28;20387;-72
2021/01/19 08:16:37;;;;;;;9.45;3.58;;;5.90;62.00;;;;;;5034570;28;20038;-70
2021/01/19 08:19:05;;;;;;;5.30;3.40;;;6.00;62.00;;;;;;5034085;28;20049;-71
2021/01/19 08:21:49;;;;;;;8.73;3.17;;;6.10;61.90;;;;;;5032881;28;20029;-71
2021/01/19 08:24:18;;;;;;;6.00;2.97;;;6.10;61.80;;;;;;5034430;28;20378;-71
2021/01/19 08:26:44;;;;;;;8.07;4.38;;;6.30;61.60;;;;;;5033714;28;20038;-71
2021/01/19 08:29:11;;;;;;;9.95;4.85;;;6.30;61.50;;;;;;5033942;28;20068;-71
2021/01/19 08:31:37;;;;;;;11.57;5.40;;;6.40;61.30;;;;;;5028855;28;20732;-71
2021/01/19 08:34:09;;;;;;;11.25;5.30;;;6.50;61.10;;;;;;5033010;28;20155;-72
2021/01/19 08:36:36;;;;;;;9.80;5.32;;;6.50;60.40;;;;;;5032649;28;20026;-70
2021/01/19 08:39:04;;;;;;;19.27;6.28;;;6.60;60.20;;;;;;5034526;28;20021;-71
2021/01/19 08:41:31;;;;;;;11.88;6.00;;;6.70;59.80;;;;;;5033319;28;20036;-71
2021/01/19 08:43:59;;;;;;;10.10;5.13;;;6.70;59.80;;;;;;5025288;28;20036;-72
2021/01/19 08:46:26;;;;;;;8.93;4.70;;;6.80;59.80;;;;;;5030449;28;20021;-72
2021/01/19 08:48:58;;;;;;;8.13;4.28;;;6.90;59.50;;;;;;5031997;28;20018;-71
2021/01/19 08:51:25;;;;;;;7.95;3.70;;;6.90;59.10;;;;;;5015928;28;20034;-72
2021/01/19 08:53:53;;;;;;;7.13;3.92;;;7.00;59.00;;;;;;5033514;28;20022;-71
2021/01/19 08:56:24;;;;;;;10.60;4.70;;;7.00;58.70;;;;;;5032990;28;20044;-71
2021/01/19 08:58:51;;;;;;;8.90;4.43;;;7.10;57.80;;;;;;5015319;28;20414;-71
2021/01/19 09:01:17;;;;;;;5.80;3.80;;;7.20;57.80;;;;;;5037534;28;20021;-71
2021/01/19 09:03:57;;;;;;;8.98;4.15;;;7.20;57.80;;;;;;5051870;28;20025;-71
2021/01/19 09:06:24;;;;;;;6.28;4.15;;;7.20;57.50;;;;;;5024876;28;20445;-70
2021/01/19 09:08:58;;;;;;;6.45;3.75;;;7.30;57.70;;;;;;5032508;28;20028;-71
2021/01/19 09:11:30;;;;;;;6.50;4.22;;;7.40;57.50;;;;;;5043519;28;20028;-71
2021/01/19 09:14:03;;;;;;;9.60;4.85;;;7.40;57.40;;;;;;5046679;28;20036;-71
2021/01/19 09:16:31;;;;;;;8.30;4.80;;;7.40;57.20;;;;;;5030174;28;20033;-70
2021/01/19 09:18:58;;;;;;;8.27;4.72;;;7.50;57.30;;;;;;5003363;28;20500;-70
2021/01/19 09:21:25;;;;;;;8.73;4.45;;;7.50;56.50;;;;;;5030298;28;20037;-71
2021/01/19 09:23:51;;;;;;;9.30;4.40;;;7.50;56.10;;;;;;5032913;28;20033;-70
2021/01/19 09:26:17;;;;;;;9.85;4.13;;;7.60;56.10;;;;;;5032034;28;20017;-70
2021/01/19 09:28:43;;;;;;;7.47;3.63;;;7.60;56.10;;;;;;5033286;28;20461;-70
2021/01/19 09:31:12;;;;;;;12.30;3.78;;;7.70;56.30;;;;;;5033287;28;20028;-71
2021/01/19 09:33:39;;;;;;;6.55;3.80;;;7.80;56.30;;;;;;5015576;28;20026;-71
2021/01/19 09:36:07;;;;;;;9.80;4.32;;;7.80;56.20;;;;;;5043278;28;20094;-71
2021/01/19 09:38:34;;;;;;;7.40;4.15;;;7.90;56.00;;;;;;5052825;28;20029;-71
2021/01/19 09:41:00;;;;;;;9.35;4.35;;;8.00;56.00;;;;;;5052828;28;20547;-71
2021/01/19 09:43:27;;;;;;;6.97;4.28;;;8.10;54.80;;;;;;5052882;28;20035;-71
2021/01/19 09:45:59;;;;;;;7.75;4.18;;;8.10;55.00;;;;;;5052993;28;20017;-70
2021/01/19 09:48:27;;;;;;;5.75;3.65;;;8.20;54.80;;;;;;5053014;28;20049;-70
2021/01/19 09:50:58;;;;;;;7.68;4.10;;;8.30;54.70;;;;;;5053001;28;20036;-72
2021/01/19 09:53:30;;;;;;;8.43;4.97;;;8.40;54.20;;;;;;5054875;28;20032;-70
2021/01/19 09:55:57;;;;;;;8.48;5.68;;;8.50;54.30;;;;;;5037982;28;20072;-71
2021/01/19 09:58:27;;;;;;;7.32;4.32;;;8.60;54.50;;;;;;5037125;28;20032;-72
2021/01/19 10:00:53;;;;;;;6.95;3.95;;;8.70;54.10;;;;;;5035602;28;20057;-71
2021/01/19 10:03:25;;;;;;;7.10;4.47;;;8.80;54.20;;;;;;5036734;28;20021;-71
2021/01/19 10:06:01;;;;;;;7.30;4.38;;;8.80;53.50;;;;;;5019009;28;20355;-71
2021/01/19 10:08:27;;;;;;;5.72;3.60;;;8.90;53.10;;;;;;5036587;28;20067;-72
2021/01/19 10:10:53;;;;;;;8.80;4.40;;;9.00;53.50;;;;;;5036588;28;20097;-70
2021/01/19 10:13:30;;;;;;;8.02;4.38;;;9.00;52.90;;;;;;5036869;28;20033;-70
2021/01/19 10:16:02;;;;;;;6.28;3.88;;;9.00;51.70;;;;;;5036594;28;20414;-71
2021/01/19 10:18:29;;;;;;;9.52;4.10;;;9.10;51.70;;;;;;5036757;28;20360;-70
2021/01/19 10:20:55;;;;;;;11.77;4.45;;;9.00;50.70;;;;;;5036318;28;20053;-71
2021/01/19 10:23:25;;;;;;;6.05;4.13;;;9.00;50.80;;;;;;5036290;28;20108;-72
2021/01/19 10:25:55;;;;;;;8.60;4.20;;;9.00;50.90;;;;;;5031923;28;20022;-72
2021/01/19 10:28:25;;;;;;;6.22;3.72;;;9.00;51.00;;;;;;5036572;28;20022;-70
2021/01/19 10:30:51;;;;;;;12.93;4.28;;;9.00;50.90;;;;;;5036234;28;20021;-71
2021/01/19 10:33:26;;;;;;;6.63;4.20;;;9.00;50.60;;;;;;5036761;28;20156;-71
2021/01/19 10:35:53;;;;;;;7.03;3.92;;;9.00;50.30;;;;;;5036137;28;20025;-71
2021/01/19 10:38:26;;;;;;;7.38;4.15;;;9.00;49.70;;;;;;5036091;28;20028;-70
2021/01/19 10:40:51;;;;;;;8.23;4.20;;;9.00;49.30;;;;;;5036409;28;20053;-71
2021/01/19 10:43:17;;;;;;;8.45;4.38;;;9.00;49.40;;;;;;5035911;28;20049;-71
2021/01/19 10:45:43;;;;;;;6.47;4.15;;;9.00;49.20;;;;;;5035947;28;20026;-71
2021/01/19 10:48:22;;;;;;;6.82;3.97;;;9.10;49.40;;;;;;5035976;28;20092;-72
2021/01/19 10:50:48;;;;;;;5.68;3.90;;;9.00;48.60;;;;;;5036445;28;20143;-71
2021/01/19 10:53:14;;;;;;;9.05;4.13;;;9.00;48.90;;;;;;5035863;28;20107;-71
2021/01/19 10:55:40;;;;;;;9.82;4.65;;;9.00;48.80;;;;;;5034980;28;20445;-72
2021/01/19 10:58:06;;;;;;;6.45;4.35;;;9.00;48.30;;;;;;5033551;28;20422;-71
2021/01/19 11:00:33;;;;;;;9.10;4.10;;;8.90;48.20;;;;;;5034725;28;20021;-71
2021/01/19 11:03:00;;;;;;;13.77;4.55;;;8.90;48.20;;;;;;5034469;28;20434;-70
2021/01/19 11:05:26;;;;;;;8.00;4.63;;;8.90;48.50;;;;;;5034886;28;20021;-70
2021/01/19 11:07:53;;;;;;;12.40;5.18;;;8.90;48.20;;;;;;5034963;28;20024;-71
2021/01/19 11:10:22;;;;;;;13.55;4.20;;;8.90;48.30;;;;;;5035555;28;20021;-71
2021/01/19 11:12:50;;;;;;;7.03;4.55;;;8.90;48.40;;;;;;5035513;28;20386;-71
2021/01/19 11:15:16;;;;;;;7.07;4.40;;;8.90;48.20;;;;;;5035436;28;20029;-72
2021/01/19 11:17:47;;;;;;;11.88;4.97;;;8.90;48.50;;;;;;5035988;28;20033;-70
2021/01/19 11:20:13;;;;;;;14.20;5.45;;;8.90;48.60;;;;;;5035396;28;20397;-71
2021/01/19 11:22:45;;;;;;;6.97;4.72;;;8.90;48.70;;;;;;5035531;28;20022;-71
2021/01/19 11:25:13;;;;;;;9.60;5.10;;;8.90;48.20;;;;;;5034528;28;20022;-71
2021/01/19 11:27:39;;;;;;;8.90;4.82;;;9.00;48.10;;;;;;5035319;28;20022;-71
2021/01/19 11:30:06;;;;;;;8.90;4.75;;;9.00;48.40;;;;;;5035458;28;20025;-71
2021/01/19 11:32:32;;;;;;;11.05;5.43;;;9.00;48.60;;;;;;5035368;28;20381;-72
2021/01/19 11:34:59;;;;;;;8.40;5.10;;;9.00;48.70;;;;;;5033625;28;20075;-72
2021/01/19 11:37:25;;;;;;;12.98;5.30;;;9.10;48.30;;;;;;5034891;28;20045;-72
2021/01/19 11:39:51;;;;;;;9.43;5.40;;;9.20;48.60;;;;;;5034995;28;20096;-72
2021/01/19 11:42:16;;;;;;;8.60;5.18;;;9.20;48.50;;;;;;5034828;28;20175;-72
2021/01/19 11:44:42;;;;;;;11.93;5.47;;;9.30;48.40;;;;;;5035309;28;20100;-72
2021/01/19 11:47:08;;;;;;;11.43;5.53;;;9.40;48.10;;;;;;5035120;28;20055;-71
2021/01/19 11:49:34;;;;;;;15.55;5.60;;;9.50;48.10;;;;;;5034871;28;20034;-72
2021/01/19 11:52:00;;;;;;;18.42;5.60;;;9.50;48.20;;;;;;5034829;28;20025;-72
2021/01/19 11:54:26;;;;;;;11.38;5.60;;;9.60;47.50;;;;;;5034730;28;20021;-72
2021/01/19 11:56:52;;;;;;;22.05;5.43;;;9.60;47.60;;;;;;5034670;28;20026;-72
2021/01/19 11:59:19;;;;;;;10.77;5.22;;;9.70;47.60;;;;;;5034796;28;20026;-72
2021/01/19 12:01:55;;;;;;;11.40;5.15;;;9.90;47.70;;;;;;5034832;28;20057;-72
2021/01/19 12:04:21;;;;;;;25.58;6.57;;;9.90;47.50;;;;;;5034785;28;20013;-72
2021/01/19 12:06:47;;;;;;;9.93;4.72;;;10.00;47.40;;;;;;5030853;28;20026;-71
2021/01/19 12:09:13;;;;;;;8.18;4.93;;;10.00;47.50;;;;;;5034403;28;20513;-72
2021/01/19 12:11:43;;;;;;;6.85;4.13;;;10.10;47.40;;;;;;5034372;28;20112;-72
2021/01/19 12:14:10;;;;;;;17.63;6.00;;;10.10;47.50;;;;;;5034659;28;20024;-72
2021/01/19 12:16:36;;;;;;;14.13;6.30;;;10.10;47.00;;;;;;5032359;28;20021;-72
2021/01/19 12:19:09;;;;;;;20.15;5.20;;;10.20;46.90;;;;;;5038327;28;20116;-72
2021/01/19 12:21:36;;;;;;;12.23;4.88;;;10.20;46.00;;;;;;5054013;28;20040;-71
2021/01/19 12:24:02;;;;;;;8.18;4.20;;;10.20;46.50;;;;;;5053931;28;20079;-71
2021/01/19 12:26:28;;;;;;;9.60;4.53;;;10.20;46.80;;;;;;5054236;28;20028;-72
2021/01/19 12:28:55;;;;;;;6.88;4.85;;;10.30;47.00;;;;;;5054150;28;20033;-72
2021/01/19 12:31:21;;;;;;;16.55;4.80;;;10.40;46.40;;;;;;5036028;28;20033;-72
2021/01/19 12:33:47;;;;;;;9.68;4.65;;;10.40;46.70;;;;;;5053834;28;20021;-72
2021/01/19 12:36:13;;;;;;;24.35;5.75;;;10.50;46.00;;;;;;5042402;28;20475;-72
2021/01/19 12:38:38;;;;;;;16.23;5.43;;;10.50;46.10;;;;;;5033929;28;20029;-72
2021/01/19 12:41:04;;;;;;;11.18;4.93;;;10.50;45.50;;;;;;5033888;28;20025;-71
2021/01/19 12:43:30;;;;;;;8.25;4.82;;;10.50;45.60;;;;;;5035933;28;20026;-72
2021/01/19 12:45:56;;;;;;;13.93;7.47;;;10.50;46.00;;;;;;5053688;28;20536;-72
2021/01/19 12:48:22;;;;;;;8.02;5.22;;;10.50;45.50;;;;;;5053546;28;20060;-72
2021/01/19 12:50:48;;;;;;;10.05;5.03;;;10.50;45.30;;;;;;5054418;28;20466;-72
2021/01/19 12:53:13;;;;;;;8.05;4.65;;;10.50;45.70;;;;;;5053576;28;20490;-72
2021/01/19 12:55:39;;;;;;;12.00;6.07;;;10.50;46.10;;;;;;5053574;28;20064;-72
2021/01/19 12:58:05;;;;;;;8.70;4.68;;;10.60;45.80;;;;;;5051330;28;20030;-71
2021/01/19 13:00:31;;;;;;;10.38;5.05;;;10.70;45.90;;;;;;5032711;28;20030;-73
2021/01/19 13:02:56;;;;;;;12.40;5.22;;;10.70;45.20;;;;;;5024016;28;20033;-73
2021/01/19 13:05:22;;;;;;;7.20;4.82;;;10.80;45.20;;;;;;5021127;28;20063;-73
2021/01/19 13:07:48;;;;;;;13.07;5.38;;;10.80;45.60;;;;;;5053063;28;20021;-72